createdAt,value
2022-08-05T00:01:36.316Z,2.50
2022-08-05T00:04:17.482Z,2.28
2022-08-05T00:06:47.284Z,1.85
2022-08-05T00:09:20.428Z,2.00
2022-08-05T00:11:56.034Z,1.80
2022-08-05T00:14:29.230Z,2.17
2022-08-05T00:17:01.719Z,1.85
2022-08-05T00:19:33.605Z,1.73
2022-08-05T00:22:02.615Z,1.80
2022-08-05T00:24:31.590Z,1.60
2022-08-05T00:27:00.165Z,1.48
2022-08-05T00:29:37.858Z,1.55
2022-08-05T00:32:10.656Z,1.58
2022-08-05T00:35:04.581Z,1.40
2022-08-05T00:37:35.540Z,1.50
2022-08-05T00:40:28.154Z,1.58
2022-08-05T00:42:58.997Z,1.55
2022-08-05T00:45:38.154Z,1.70
2022-08-05T00:48:14.199Z,1.60
2022-08-05T00:50:45.976Z,1.80
2022-08-05T00:53:45.122Z,1.60
2022-08-05T00:56:05.645Z,1.83
2022-08-05T00:58:36.941Z,1.60
2022-08-05T01:01:08.757Z,1.60
2022-08-05T01:03:39.997Z,1.73
2022-08-05T01:06:11.220Z,1.73
2022-08-05T01:08:44.310Z,1.80
2022-08-05T01:11:22.606Z,1.42
2022-08-05T01:14:08.927Z,1.77
2022-08-05T01:16:45.415Z,1.50
2022-08-05T01:19:36.621Z,1.60
2022-08-05T01:22:28.075Z,1.88
2022-08-05T01:25:39.771Z,1.70
2022-08-05T01:28:18.892Z,1.63
2022-08-05T01:30:53.725Z,1.58
2022-08-05T01:33:35.608Z,1.77
2022-08-05T01:36:12.982Z,1.75
2022-08-05T01:38:48.291Z,1.85
2022-08-05T01:41:22.823Z,1.60
2022-08-05T01:43:57.826Z,1.50
2022-08-05T01:46:41.337Z,1.70
2022-08-05T01:49:24.241Z,1.70
2022-08-05T01:51:58.316Z,1.52
2022-08-05T01:54:31.046Z,1.80
2022-08-05T01:58:09.563Z,1.70
2022-08-05T01:59:53.965Z,1.67
2022-08-05T02:02:26.140Z,1.92
2022-08-05T02:05:00.089Z,1.83
2022-08-05T02:07:30.371Z,1.75
2022-08-05T02:10:00.269Z,1.67
2022-08-05T02:12:35.875Z,1.48
2022-08-05T02:15:13.977Z,1.90
2022-08-05T02:18:32.174Z,1.60
2022-08-05T02:20:49.820Z,1.80
2022-08-05T02:23:25.286Z,1.50
2022-08-05T02:25:55.194Z,1.67
2022-08-05T02:28:31.271Z,1.60
2022-08-05T02:31:07.759Z,1.50
2022-08-05T02:33:50.143Z,1.95
2022-08-05T02:36:31.546Z,1.50
2022-08-05T02:39:03.255Z,1.83
2022-08-05T02:41:43.253Z,1.60
2022-08-05T02:44:25.690Z,1.90
2022-08-05T02:46:59.836Z,1.85
2022-08-05T02:49:36.842Z,2.00
2022-08-05T02:52:09.275Z,1.80
2022-08-05T02:54:42.170Z,1.65
2022-08-05T02:58:11.717Z,1.70
2022-08-05T03:00:03.882Z,1.60
2022-08-05T03:02:38.539Z,1.70
2022-08-05T03:05:10.704Z,1.90
2022-08-05T03:08:06.943Z,1.80
2022-08-05T03:10:30.896Z,1.63
2022-08-05T03:15:26.874Z,1.80
2022-08-05T03:17:59.394Z,1.70
2022-08-05T03:20:27.994Z,1.60
2022-08-05T03:22:58.075Z,1.88
2022-08-05T03:25:33.507Z,1.40
2022-08-05T03:28:18.676Z,1.70
2022-08-05T03:30:49.665Z,1.77
2022-08-05T03:33:20.916Z,1.67
2022-08-05T03:35:51.862Z,1.67
2022-08-05T03:38:32.782Z,1.50
2022-08-05T03:41:08.184Z,2.03
2022-08-05T03:44:09.978Z,1.40
2022-08-05T03:46:26.695Z,2.03
2022-08-05T03:49:00.230Z,1.80
2022-08-05T03:52:49.413Z,1.70
2022-08-05T03:56:01.036Z,1.70
2022-08-05T03:57:29.122Z,1.67
2022-08-05T04:00:15.884Z,1.83
2022-08-05T04:02:57.857Z,1.70
2022-08-05T04:05:33.401Z,1.90
2022-08-05T04:08:05.869Z,1.60
2022-08-05T04:10:45.418Z,1.90
2022-08-05T04:13:14.034Z,1.70
2022-08-05T04:16:02.752Z,2.10
2022-08-05T04:18:32.347Z,1.80
2022-08-05T04:21:05.249Z,1.83
2022-08-05T04:24:05.931Z,1.80
2022-08-05T04:26:24.317Z,2.08
2022-08-05T04:28:53.118Z,1.83
2022-08-05T04:31:22.216Z,2.03
2022-08-05T04:34:31.175Z,2.15
2022-08-05T04:36:50.024Z,2.20
2022-08-05T04:39:19.041Z,2.20
2022-08-05T04:41:48.446Z,2.10
2022-08-05T04:44:24.434Z,1.90
2022-08-05T04:46:58.377Z,2.58
2022-08-05T04:49:38.807Z,1.90
2022-08-05T04:52:17.206Z,1.80
2022-08-05T04:54:47.273Z,2.22
2022-08-05T04:57:17.922Z,1.80
2022-08-05T04:59:48.167Z,2.30
2022-08-05T05:02:41.337Z,1.83
2022-08-05T05:05:26.541Z,1.90
2022-08-05T05:07:56.688Z,1.83
2022-08-05T05:10:30.678Z,1.67
2022-08-05T05:13:03.841Z,1.90
2022-08-05T05:15:57.269Z,2.20
2022-08-05T05:18:31.497Z,1.63
2022-08-05T05:21:03.578Z,1.85
2022-08-05T05:24:02.064Z,1.70
2022-08-05T05:26:28.451Z,1.90
2022-08-05T05:29:02.372Z,1.63
2022-08-05T05:34:02.352Z,1.90
2022-08-05T05:36:32.269Z,1.98
2022-08-05T05:39:05.409Z,1.95
2022-08-05T05:41:40.425Z,1.77
2022-08-05T05:44:35.545Z,4.85
2022-08-05T05:47:04.369Z,4.55
2022-08-05T05:49:47.107Z,2.92
2022-08-05T05:52:28.736Z,2.30
2022-08-05T05:55:02.270Z,2.03
2022-08-05T05:57:52.013Z,1.80
2022-08-05T06:00:31.316Z,1.95
2022-08-05T06:03:03.359Z,1.90
2022-08-05T06:05:54.184Z,1.95
2022-08-05T06:08:32.341Z,1.80
2022-08-05T06:11:02.989Z,1.98
2022-08-05T06:13:40.806Z,2.30
2022-08-05T06:16:29.200Z,2.15
2022-08-05T06:19:01.154Z,2.15
2022-08-05T06:21:36.958Z,2.03
2022-08-05T06:24:11.440Z,2.20
2022-08-05T06:26:51.492Z,2.08
2022-08-05T06:29:25.329Z,2.10
2022-08-05T06:32:20.930Z,2.22
2022-08-05T06:34:53.510Z,2.30
2022-08-05T06:37:56.526Z,1.80
2022-08-05T06:40:14.116Z,2.33
2022-08-05T06:42:52.260Z,2.20
2022-08-05T06:45:43.895Z,2.10
2022-08-05T06:48:36.518Z,1.95
2022-08-05T06:51:00.197Z,1.83
2022-08-05T06:53:29.449Z,1.90
2022-08-05T06:55:59.161Z,2.10
2022-08-05T06:58:36.394Z,1.90
2022-08-05T07:01:07.163Z,2.20
2022-08-05T07:03:36.184Z,2.20
2022-08-05T07:06:14.164Z,2.13
2022-08-05T07:08:47.283Z,2.08
2022-08-05T07:11:17.008Z,2.20
2022-08-05T07:14:06.290Z,2.40
2022-08-05T07:18:00.823Z,2.20
2022-08-05T07:20:31.255Z,2.25
2022-08-05T07:22:36.472Z,2.00
2022-08-05T07:25:22.089Z,2.70
2022-08-05T07:28:02.737Z,2.25
2022-08-05T07:30:39.094Z,2.38
2022-08-05T07:33:15.548Z,2.50
2022-08-05T07:36:02.248Z,2.20
2022-08-05T07:38:43.232Z,2.15
2022-08-05T07:42:08.709Z,1.92
2022-08-05T07:44:18.594Z,2.05
2022-08-05T07:46:50.604Z,2.30
2022-08-05T07:49:20.614Z,2.03
2022-08-05T07:51:54.236Z,2.00
2022-08-05T07:54:31.413Z,2.08
2022-08-05T07:57:17.788Z,1.90
2022-08-05T07:59:51.118Z,1.88
2022-08-05T08:02:26.792Z,1.90
2022-08-05T08:05:00.509Z,1.90
2022-08-05T08:07:39.483Z,2.20
2022-08-05T08:10:20.688Z,2.03
2022-08-05T08:12:49.944Z,2.13
2022-08-05T08:15:37.304Z,2.10
2022-08-05T08:18:14.300Z,2.20
2022-08-05T08:21:03.113Z,1.90
2022-08-05T08:24:02.127Z,2.15
2022-08-05T08:26:26.998Z,2.22
2022-08-05T08:29:22.295Z,2.33
2022-08-05T08:31:48.578Z,1.95
2022-08-05T08:34:29.837Z,2.47
2022-08-05T08:37:03.388Z,2.17
2022-08-05T08:39:37.474Z,2.25
2022-08-05T08:42:15.229Z,2.33
2022-08-05T08:45:20.788Z,2.00
2022-08-05T08:48:10.579Z,2.00
2022-08-05T08:51:03.225Z,2.03
2022-08-05T08:53:36.130Z,2.25
2022-08-05T08:56:06.183Z,2.10
2022-08-05T08:58:43.253Z,2.33
2022-08-05T09:01:15.755Z,1.90
2022-08-05T09:03:48.190Z,2.10
2022-08-05T09:06:24.208Z,2.20
2022-08-05T09:08:57.206Z,1.92
2022-08-05T09:11:51.884Z,2.00
2022-08-05T09:14:57.380Z,1.90
2022-08-05T09:17:03.787Z,1.92
2022-08-05T09:19:36.681Z,1.85
2022-08-05T09:22:31.044Z,1.75
2022-08-05T09:25:01.244Z,1.80
2022-08-05T09:28:04.345Z,2.00
2022-08-05T09:30:24.145Z,1.80
2022-08-05T09:32:52.960Z,1.90
2022-08-05T09:35:27.063Z,1.98
2022-08-05T09:38:12.375Z,2.20
2022-08-05T09:40:52.516Z,2.30
2022-08-05T09:43:40.204Z,2.20
2022-08-05T09:46:27.644Z,2.10
2022-08-05T09:49:08.260Z,2.00
2022-08-05T09:51:48.883Z,2.00
2022-08-05T09:54:32.282Z,2.00
2022-08-05T09:57:01.498Z,1.95
2022-08-05T09:59:35.187Z,1.83
2022-08-05T10:02:06.398Z,2.22
2022-08-05T10:04:41.118Z,2.20
2022-08-05T10:07:20.202Z,2.30
2022-08-05T10:10:04.364Z,2.20
2022-08-05T10:12:49.685Z,2.10
2022-08-05T10:15:21.665Z,1.80
2022-08-05T10:18:09.194Z,2.00
2022-08-05T10:20:40.203Z,2.15
2022-08-05T10:23:34.473Z,1.98
2022-08-05T10:26:00.158Z,2.08
2022-08-05T10:28:29.762Z,2.38
2022-08-05T10:32:48.395Z,2.30
2022-08-05T10:33:54.182Z,2.30
2022-08-05T10:36:25.995Z,2.17
2022-08-05T10:39:10.221Z,2.38
2022-08-05T10:41:50.758Z,2.30
2022-08-05T10:44:21.506Z,2.03
2022-08-05T10:46:54.310Z,1.90
2022-08-05T10:49:26.751Z,2.15
2022-08-05T10:52:00.668Z,2.17
2022-08-05T10:55:03.523Z,2.15
2022-08-05T10:57:34.964Z,2.50
2022-08-05T11:00:18.731Z,2.50
2022-08-05T11:03:25.890Z,2.65
2022-08-05T11:06:15.196Z,2.42
2022-08-05T11:09:18.591Z,2.33
2022-08-05T11:11:54.187Z,2.58
2022-08-05T11:14:57.581Z,2.20
2022-08-05T11:17:58.917Z,2.42
2022-08-05T11:20:45.206Z,2.33
2022-08-05T11:24:05.161Z,2.20
2022-08-05T11:26:28.384Z,2.20
2022-08-05T11:29:12.789Z,2.10
2022-08-05T11:31:57.004Z,2.30
2022-08-05T11:34:51.144Z,2.10
2022-08-05T11:38:28.626Z,1.98
2022-08-05T11:41:34.481Z,2.10
2022-08-05T11:44:05.026Z,2.00
2022-08-05T11:46:37.482Z,2.10
2022-08-05T11:49:10.022Z,2.03
2022-08-05T11:51:44.555Z,2.42
2022-08-05T11:54:33.143Z,2.10
2022-08-05T11:57:07.962Z,2.30
2022-08-05T11:59:50.279Z,2.25
2022-08-05T12:02:29.825Z,2.20
2022-08-05T12:05:08.138Z,2.30
2022-08-05T12:08:03.398Z,2.50
2022-08-05T12:10:45.816Z,2.42
2022-08-05T12:13:18.914Z,2.58
2022-08-05T12:16:14.558Z,2.35
2022-08-05T12:18:52.170Z,2.38
2022-08-05T12:21:26.788Z,2.53
2022-08-05T12:24:05.019Z,2.10
2022-08-05T12:26:36.079Z,2.20
2022-08-05T12:29:05.614Z,1.80
2022-08-05T12:31:46.075Z,1.85
2022-08-05T12:34:21.331Z,1.80
2022-08-05T12:36:54.551Z,1.50
2022-08-05T12:39:34.711Z,1.65
2022-08-05T12:42:14.914Z,1.65
2022-08-05T12:44:44.698Z,1.60
2022-08-05T12:47:17.207Z,1.48
2022-08-05T12:50:03.508Z,1.70
2022-08-05T12:52:38.813Z,1.55
2022-08-05T12:55:21.865Z,1.52
2022-08-05T12:58:38.451Z,1.63
2022-08-05T13:02:03.288Z,1.60
2022-08-05T13:03:33.093Z,1.80
2022-08-05T13:06:01.980Z,1.50
2022-08-05T13:08:32.784Z,1.52
2022-08-05T13:11:02.298Z,1.80
2022-08-05T13:14:04.539Z,1.50
2022-08-05T13:16:25.085Z,1.67
2022-08-05T13:18:57.566Z,1.70
2022-08-05T13:21:28.426Z,1.40
2022-08-05T13:24:08.668Z,1.50
2022-08-05T13:26:37.554Z,1.30
2022-08-05T13:29:06.302Z,1.70
2022-08-05T13:32:04.524Z,1.50
2022-08-05T13:34:25.935Z,1.50
2022-08-05T13:36:55.029Z,1.60
2022-08-05T13:40:20.104Z,1.50
2022-08-05T13:42:14.830Z,1.88
2022-08-05T13:44:45.745Z,1.40
2022-08-05T13:47:35.457Z,1.70
2022-08-05T13:50:04.245Z,1.70
2022-08-05T13:52:35.430Z,1.63
2022-08-05T13:55:09.736Z,1.40
2022-08-05T13:57:51.031Z,1.60
2022-08-05T14:00:27.253Z,1.70
2022-08-05T14:02:57.104Z,1.40
2022-08-05T14:05:47.999Z,4.18
2022-08-05T14:08:21.438Z,1.30
2022-08-05T14:10:59.844Z,1.55
2022-08-05T14:13:36.690Z,1.30
2022-08-05T14:16:11.559Z,1.30
2022-08-05T14:18:40.202Z,1.40
2022-08-05T14:22:09.308Z,1.15
2022-08-05T14:23:57.804Z,1.15
2022-08-05T14:26:35.656Z,1.40
2022-08-05T14:29:15.707Z,1.20
2022-08-05T14:32:02.132Z,1.17
2022-08-05T14:34:35.201Z,1.25
2022-08-05T14:37:04.426Z,1.45
2022-08-05T14:39:49.301Z,1.10
2022-08-05T14:42:29.482Z,1.23
2022-08-05T14:44:58.312Z,1.33
2022-08-05T14:48:05.454Z,1.30
2022-08-05T14:50:19.087Z,1.20
2022-08-05T14:52:53.598Z,1.20
2022-08-05T14:55:28.635Z,1.20
2022-08-05T14:58:13.793Z,1.27
2022-08-05T15:00:58.345Z,1.30
2022-08-05T15:03:33.341Z,1.30
2022-08-05T15:06:07.563Z,1.30
2022-08-05T15:08:59.118Z,1.23
2022-08-05T15:11:52.814Z,1.10
2022-08-05T15:14:35.905Z,1.45
2022-08-05T15:17:09.777Z,1.38
2022-08-05T15:19:57.564Z,1.30
2022-08-05T15:22:27.102Z,1.55
2022-08-05T15:24:56.537Z,1.38
2022-08-05T15:27:25.396Z,1.17
2022-08-05T15:29:56.789Z,1.10
2022-08-05T15:32:28.710Z,1.20
2022-08-05T15:34:57.564Z,1.15
2022-08-05T15:38:31.787Z,1.35
2022-08-05T15:41:02.190Z,1.20
2022-08-05T15:43:10.828Z,1.20
2022-08-05T15:45:59.809Z,1.20
2022-08-05T15:48:30.081Z,1.45
2022-08-05T15:51:03.298Z,1.00
2022-08-05T15:53:38.250Z,1.13
2022-08-05T15:56:20.209Z,1.20
2022-08-05T15:58:49.052Z,1.30
2022-08-05T16:01:20.095Z,1.13
2022-08-05T16:03:50.856Z,1.30
2022-08-05T16:06:22.813Z,1.50
2022-08-05T16:08:53.596Z,1.20
2022-08-05T16:11:42.366Z,1.40
2022-08-05T16:14:17.205Z,1.40
2022-08-05T16:16:48.284Z,1.20
2022-08-05T16:19:19.237Z,1.40
2022-08-05T16:22:05.823Z,1.35
2022-08-05T16:24:41.548Z,1.35
2022-08-05T16:27:32.065Z,1.27
2022-08-05T16:30:23.179Z,1.40
2022-08-05T16:32:55.903Z,1.50
2022-08-05T16:35:27.711Z,1.10
2022-08-05T16:38:15.391Z,1.40
2022-08-05T16:40:47.686Z,1.10
2022-08-05T16:43:23.643Z,1.40
2022-08-05T16:46:05.234Z,1.30
2022-08-05T16:48:39.517Z,1.40
2022-08-05T16:51:09.311Z,1.20
2022-08-05T16:54:04.334Z,1.20
2022-08-05T16:56:33.773Z,1.50
2022-08-05T16:59:07.621Z,1.10
2022-08-05T17:01:54.650Z,1.10
2022-08-05T17:04:27.287Z,1.23
2022-08-05T17:07:00.474Z,1.10
2022-08-05T17:09:29.871Z,1.10
2022-08-05T17:11:59.631Z,1.20
2022-08-05T17:14:36.918Z,1.30
2022-08-05T17:17:09.392Z,1.35
2022-08-05T17:19:46.294Z,1.30
2022-08-05T17:22:25.022Z,1.40
2022-08-05T17:24:58.079Z,1.25
2022-08-05T17:27:33.644Z,1.67
2022-08-05T17:30:11.995Z,1.23
2022-08-05T17:32:47.932Z,1.30
2022-08-05T17:35:20.715Z,1.50
2022-08-05T17:37:50.468Z,1.40
2022-08-05T17:40:22.699Z,1.30
2022-08-05T17:42:53.281Z,1.30
2022-08-05T17:45:23.109Z,1.40
2022-08-05T17:47:55.845Z,1.30
2022-08-05T17:50:30.352Z,1.38
2022-08-05T17:53:04.853Z,1.85
2022-08-05T17:55:39.740Z,1.35
2022-08-05T17:58:12.234Z,2.00
2022-08-05T18:00:45.296Z,1.63
2022-08-05T18:03:55.887Z,1.45
2022-08-05T18:06:11.974Z,1.30
2022-08-05T18:08:45.879Z,1.30
2022-08-05T18:11:24.368Z,1.40
2022-08-05T18:14:03.631Z,1.40
2022-08-05T18:16:32.940Z,1.33
2022-08-05T18:19:01.454Z,1.55
2022-08-05T18:22:07.792Z,1.45
2022-08-05T18:24:19.589Z,1.60
2022-08-05T18:26:49.687Z,1.30
2022-08-05T18:29:18.131Z,1.58
2022-08-05T18:32:07.398Z,1.60
2022-08-05T18:34:42.849Z,1.50
2022-08-05T18:37:33.533Z,1.38
2022-08-05T18:41:50.332Z,1.60
2022-08-05T18:42:49.727Z,1.38
2022-08-05T18:45:20.809Z,1.60
2022-08-05T18:47:56.436Z,1.70
2022-08-05T18:50:46.786Z,1.60
2022-08-05T18:53:22.828Z,1.73
2022-08-05T18:55:53.514Z,1.50
2022-08-05T18:58:27.237Z,1.30
2022-08-05T19:00:57.352Z,1.50
2022-08-05T19:03:55.070Z,1.35
2022-08-05T19:06:21.973Z,1.45
2022-08-05T19:09:04.082Z,1.48
2022-08-05T19:11:59.582Z,1.40
2022-08-05T19:14:52.419Z,1.67
2022-08-05T19:17:11.624Z,1.50
2022-08-05T19:19:44.077Z,1.48
2022-08-05T19:22:17.313Z,1.45
2022-08-05T19:24:55.885Z,1.70
2022-08-05T19:27:30.333Z,1.60
2022-08-05T19:29:59.163Z,1.70
2022-08-05T19:32:27.835Z,1.60
2022-08-05T19:34:57.788Z,1.50
2022-08-05T19:37:35.177Z,1.70
2022-08-05T19:40:16.896Z,1.75
2022-08-05T19:43:04.431Z,1.70
2022-08-05T19:45:36.930Z,1.48
2022-08-05T19:48:06.486Z,1.35
2022-08-05T19:50:36.748Z,1.50
2022-08-05T19:53:09.433Z,1.50
2022-08-05T19:56:13.858Z,1.55
2022-08-05T19:58:30.288Z,1.50
2022-08-05T20:00:58.926Z,1.70
2022-08-05T20:03:40.555Z,1.67
2022-08-05T20:06:11.654Z,1.35
2022-08-05T20:08:47.574Z,1.63
2022-08-05T20:11:19.533Z,1.55
2022-08-05T20:13:58.111Z,1.50
2022-08-05T20:16:36.716Z,1.65
2022-08-05T20:19:05.776Z,1.73
2022-08-05T20:21:35.253Z,1.52
2022-08-05T20:24:07.592Z,1.60
2022-08-05T20:26:42.775Z,1.60
2022-08-05T20:29:26.618Z,1.70
2022-08-05T20:31:58.352Z,1.40
2022-08-05T20:34:28.449Z,1.35
2022-08-05T20:36:56.829Z,1.60
2022-08-05T20:39:25.860Z,1.55
2022-08-05T20:42:06.037Z,1.38
2022-08-05T20:44:38.083Z,1.60
2022-08-05T20:47:07.773Z,1.60
2022-08-05T20:49:39.246Z,1.60
2022-08-05T20:52:10.623Z,1.40
2022-08-05T20:54:42.786Z,1.63
2022-08-05T20:57:43.912Z,1.40
2022-08-05T21:00:41.640Z,1.60
2022-08-05T21:03:06.823Z,1.45
2022-08-05T21:05:47.917Z,1.63
2022-08-05T21:08:32.936Z,1.42
2022-08-05T21:11:11.961Z,1.50
2022-08-05T21:13:47.431Z,1.45
2022-08-05T21:16:29.081Z,1.70
2022-08-05T21:19:00.110Z,1.55
2022-08-05T21:21:44.617Z,1.70
2022-08-05T21:24:19.487Z,1.48
2022-08-05T21:26:53.224Z,1.80
2022-08-05T21:29:32.181Z,1.50
2022-08-05T21:32:01.608Z,1.90
2022-08-05T21:34:31.584Z,1.60
2022-08-05T21:37:00.335Z,1.58
2022-08-05T21:39:28.764Z,1.60
2022-08-05T21:42:01.685Z,1.50
2022-08-05T21:44:32.410Z,1.60
2022-08-05T21:47:01.283Z,1.50
2022-08-05T21:49:48.690Z,1.83
2022-08-05T21:52:26.911Z,1.60
2022-08-05T21:54:57.589Z,1.42
2022-08-05T21:57:35.639Z,1.60
2022-08-05T22:00:10.915Z,1.65
2022-08-05T22:02:41.773Z,1.70
2022-08-05T22:05:11.617Z,1.75
2022-08-05T22:07:59.161Z,1.70
2022-08-05T22:10:28.604Z,1.50
2022-08-05T22:12:59.041Z,1.65
2022-08-05T22:15:56.674Z,1.70
2022-08-05T22:18:27.997Z,1.75
2022-08-05T22:20:58.598Z,1.48
2022-08-05T22:24:02.625Z,1.70
2022-08-05T22:26:50.696Z,1.65
2022-08-05T22:29:26.501Z,1.95
2022-08-05T22:32:02.802Z,1.88
2022-08-05T22:34:32.317Z,1.63
2022-08-05T22:37:03.990Z,1.63
2022-08-05T22:39:34.661Z,1.58
2022-08-05T22:42:10.353Z,1.77
2022-08-05T22:44:48.482Z,1.70
2022-08-05T22:47:29.216Z,1.40
2022-08-05T22:50:19.732Z,1.83
2022-08-05T22:52:48.634Z,1.70
2022-08-05T22:55:19.124Z,1.98
2022-08-05T22:57:49.368Z,1.45
2022-08-05T23:00:21.240Z,1.77
2022-08-05T23:02:53.688Z,1.95
2022-08-05T23:05:24.309Z,1.90
2022-08-05T23:07:53.217Z,1.48
2022-08-05T23:10:23.848Z,1.60
2022-08-05T23:12:54.441Z,1.70
2022-08-05T23:15:26.914Z,1.52
2022-08-05T23:18:03.634Z,1.70
2022-08-05T23:20:37.280Z,1.70
2022-08-05T23:23:08.628Z,1.50
2022-08-05T23:25:53.572Z,1.80
2022-08-05T23:28:27.750Z,1.90
2022-08-05T23:31:15.788Z,1.90
2022-08-05T23:34:03.908Z,1.70
2022-08-05T23:36:41.428Z,1.55
2022-08-05T23:39:16.565Z,1.85
2022-08-05T23:41:48.751Z,1.58
2022-08-05T23:44:19.794Z,1.58
2022-08-05T23:46:51.195Z,1.60
2022-08-05T23:49:33.738Z,1.80
2022-08-05T23:52:19.910Z,1.73
2022-08-05T23:54:50.948Z,1.80
2022-08-05T23:57:19.882Z,1.83
